sensor_id;sensor_type;location;lat;lon;timestamp;pressure;altitude;pressure_sealevel;temperature;humidity
41862;BME280;27537;57.134;-2.136;2023-03-18T00:00:27;99636.47;;;8.82;100.00
41862;BME280;27537;57.134;-2.136;2023-03-18T00:02:53;99595.13;;;8.55;100.00
41862;BME280;27537;57.134;-2.136;2023-03-18T00:05:20;99590.91;;;8.52;100.00
41862;BME280;27537;57.134;-2.136;2023-03-18T00:07:47;99598.53;;;8.74;100.00
41862;BME280;27537;57.134;-2.136;2023-03-18T00:10:15;99645.63;;;8.90;100.00
41862;BME280;27537;57.134;-2.136;2023-03-18T00:12:42;99635.06;;;8.74;100.00
41862;BME280;27537;57.134;-2.136;2023-03-18T00:15:12;99672.09;;;9.02;100.00
41862;BME280;27537;57.134;-2.136;2023-03-18T00:17:39;99639.00;;;8.83;100.00
41862;BME280;27537;57.134;-2.136;2023-03-18T00:20:07;99671.50;;;9.14;100.00
41862;BME280;27537;57.134;-2.136;2023-03-18T00:22:35;99629.78;;;8.76;100.00
41862;BME280;27537;57.134;-2.136;2023-03-18T00:25:05;99634.66;;;8.84;100.00
41862;BME280;27537;57.134;-2.136;2023-03-18T00:27:33;99638.03;;;8.86;100.00
41862;BME280;27537;57.134;-2.136;2023-03-18T00:30:02;99665.56;;;9.10;100.00
41862;BME280;27537;57.134;-2.136;2023-03-18T00:32:30;99662.00;;;8.94;100.00
41862;BME280;27537;57.134;-2.136;2023-03-18T00:34:58;99643.25;;;8.86;100.00
41862;BME280;27537;57.134;-2.136;2023-03-18T00:37:26;99600.50;;;8.52;100.00
41862;BME280;27537;57.134;-2.136;2023-03-18T00:40:00;99671.38;;;8.98;100.00
41862;BME280;27537;57.134;-2.136;2023-03-18T00:42:38;99678.91;;;9.04;100.00
41862;BME280;27537;57.134;-2.136;2023-03-18T00:45:07;99590.22;;;8.49;100.00
41862;BME280;27537;57.134;-2.136;2023-03-18T00:47:35;99651.72;;;8.91;100.00
41862;BME280;27537;57.134;-2.136;2023-03-18T00:50:05;99678.22;;;9.01;100.00
41862;BME280;27537;57.134;-2.136;2023-03-18T00:52:34;99640.16;;;8.78;100.00
41862;BME280;27537;57.134;-2.136;2023-03-18T00:55:01;99629.16;;;8.71;100.00
41862;BME280;27537;57.134;-2.136;2023-03-18T00:57:28;99655.03;;;8.95;100.00
41862;BME280;27537;57.134;-2.136;2023-03-18T00:59:56;99672.72;;;9.07;100.00
41862;BME280;27537;57.134;-2.136;2023-03-18T01:02:25;99671.09;;;9.04;100.00
41862;BME280;27537;57.134;-2.136;2023-03-18T01:04:53;99646.56;;;8.89;100.00
41862;BME280;27537;57.134;-2.136;2023-03-18T01:07:19;99604.13;;;8.67;100.00
41862;BME280;27537;57.134;-2.136;2023-03-18T01:09:46;99634.41;;;8.88;100.00
41862;BME280;27537;57.134;-2.136;2023-03-18T01:12:14;99663.75;;;8.93;100.00
41862;BME280;27537;57.134;-2.136;2023-03-18T01:14:41;99622.25;;;8.70;100.00
41862;BME280;27537;57.134;-2.136;2023-03-18T01:17:08;99650.16;;;8.87;100.00
41862;BME280;27537;57.134;-2.136;2023-03-18T01:19:36;99652.06;;;8.83;100.00
41862;BME280;27537;57.134;-2.136;2023-03-18T01:22:03;99683.09;;;9.08;100.00
41862;BME280;27537;57.134;-2.136;2023-03-18T01:24:30;99632.16;;;8.63;100.00
41862;BME280;27537;57.134;-2.136;2023-03-18T01:26:57;99641.00;;;8.78;100.00
41862;BME280;27537;57.134;-2.136;2023-03-18T01:29:25;99683.56;;;8.98;100.00
41862;BME280;27537;57.134;-2.136;2023-03-18T01:31:52;99595.50;;;8.47;100.00
41862;BME280;27537;57.134;-2.136;2023-03-18T01:34:20;99666.25;;;8.97;100.00
41862;BME280;27537;57.134;-2.136;2023-03-18T01:36:47;99637.47;;;8.79;100.00
41862;BME280;27537;57.134;-2.136;2023-03-18T01:39:14;99631.78;;;8.71;100.00
41862;BME280;27537;57.134;-2.136;2023-03-18T01:41:40;99649.94;;;8.91;100.00
41862;BME280;27537;57.134;-2.136;2023-03-18T01:44:16;99684.84;;;9.08;100.00
41862;BME280;27537;57.134;-2.136;2023-03-18T01:46:47;99678.22;;;9.01;100.00
41862;BME280;27537;57.134;-2.136;2023-03-18T01:49:17;99683.84;;;9.10;100.00
41862;BME280;27537;57.134;-2.136;2023-03-18T01:52:02;99685.91;;;9.04;100.00
41862;BME280;27537;57.134;-2.136;2023-03-18T01:54:35;99685.84;;;9.05;100.00
41862;BME280;27537;57.134;-2.136;2023-03-18T01:57:03;99615.16;;;8.54;100.00
41862;BME280;27537;57.134;-2.136;2023-03-18T01:59:31;99657.47;;;8.80;100.00
41862;BME280;27537;57.134;-2.136;2023-03-18T02:02:05;99680.69;;;9.04;100.00
41862;BME280;27537;57.134;-2.136;2023-03-18T02:04:44;99636.72;;;8.77;100.00
41862;BME280;27537;57.134;-2.136;2023-03-18T02:07:28;99690.94;;;9.08;100.00
41862;BME280;27537;57.134;-2.136;2023-03-18T02:10:04;99678.28;;;8.99;100.00
41862;BME280;27537;57.134;-2.136;2023-03-18T02:12:34;99680.06;;;8.99;100.00
41862;BME280;27537;57.134;-2.136;2023-03-18T02:15:05;99679.91;;;9.02;100.00
41862;BME280;27537;57.134;-2.136;2023-03-18T02:17:35;99629.97;;;8.73;100.00
41862;BME280;27537;57.134;-2.136;2023-03-18T02:20:23;99675.47;;;9.04;100.00
41862;BME280;27537;57.134;-2.136;2023-03-18T02:28:25;99676.22;;;9.06;100.00
41862;BME280;27537;57.134;-2.136;2023-03-18T02:30:57;99691.53;;;9.13;100.00
41862;BME280;27537;57.134;-2.136;2023-03-18T02:33:29;99641.78;;;8.80;100.00
41862;BME280;27537;57.134;-2.136;2023-03-18T02:36:02;99687.31;;;9.11;100.00
41862;BME280;27537;57.134;-2.136;2023-03-18T02:38:30;99648.69;;;8.81;100.00
41862;BME280;27537;57.134;-2.136;2023-03-18T02:40:57;99685.06;;;9.03;100.00
41862;BME280;27537;57.134;-2.136;2023-03-18T02:43:30;99646.78;;;8.85;100.00
41862;BME280;27537;57.134;-2.136;2023-03-18T02:46:01;99679.09;;;9.01;100.00
41862;BME280;27537;57.134;-2.136;2023-03-18T02:48:41;99679.09;;;9.01;100.00
41862;BME280;27537;57.134;-2.136;2023-03-18T02:51:11;99643.59;;;8.78;100.00
41862;BME280;27537;57.134;-2.136;2023-03-18T02:53:39;99644.41;;;8.80;100.00
41862;BME280;27537;57.134;-2.136;2023-03-18T02:56:08;99657.91;;;8.88;100.00
41862;BME280;27537;57.134;-2.136;2023-03-18T02:58:36;99641.63;;;8.83;100.00
41862;BME280;27537;57.134;-2.136;2023-03-18T03:01:04;99665.81;;;8.87;100.00
41862;BME280;27537;57.134;-2.136;2023-03-18T03:03:32;99631.25;;;8.64;100.00
41862;BME280;27537;57.134;-2.136;2023-03-18T03:06:01;99671.75;;;8.90;100.00
41862;BME280;27537;57.134;-2.136;2023-03-18T03:08:29;99629.47;;;8.65;100.00
41862;BME280;27537;57.134;-2.136;2023-03-18T03:10:56;99646.47;;;8.73;100.00
41862;BME280;27537;57.134;-2.136;2023-03-18T03:13:23;99653.13;;;8.79;100.00
41862;BME280;27537;57.134;-2.136;2023-03-18T03:15:50;99672.38;;;8.96;100.00
41862;BME280;27537;57.134;-2.136;2023-03-18T03:18:17;99648.44;;;8.68;100.00
41862;BME280;27537;57.134;-2.136;2023-03-18T03:20:44;99648.38;;;8.70;100.00
41862;BME280;27537;57.134;-2.136;2023-03-18T03:23:13;99657.66;;;8.76;100.00
41862;BME280;27537;57.134;-2.136;2023-03-18T03:25:40;99699.09;;;9.01;100.00
41862;BME280;27537;57.134;-2.136;2023-03-18T03:28:08;99658.34;;;8.79;100.00
41862;BME280;27537;57.134;-2.136;2023-03-18T03:30:35;99685.50;;;8.94;100.00
41862;BME280;27537;57.134;-2.136;2023-03-18T03:33:02;99650.03;;;8.71;100.00
41862;BME280;27537;57.134;-2.136;2023-03-18T03:35:29;99706.03;;;9.02;100.00
41862;BME280;27537;57.134;-2.136;2023-03-18T03:37:56;99690.38;;;8.83;100.00
41862;BME280;27537;57.134;-2.136;2023-03-18T03:40:23;99692.41;;;8.95;100.00
41862;BME280;27537;57.134;-2.136;2023-03-18T03:42:51;99651.88;;;8.69;100.00
41862;BME280;27537;57.134;-2.136;2023-03-18T03:45:18;99681.97;;;8.95;100.00
41862;BME280;27537;57.134;-2.136;2023-03-18T03:47:46;99724.63;;;9.13;100.00
41862;BME280;27537;57.134;-2.136;2023-03-18T03:50:14;99708.16;;;8.93;100.00
41862;BME280;27537;57.134;-2.136;2023-03-18T03:52:41;99675.16;;;8.73;100.00
41862;BME280;27537;57.134;-2.136;2023-03-18T03:55:11;99724.25;;;9.03;100.00
41862;BME280;27537;57.134;-2.136;2023-03-18T03:57:38;99703.88;;;8.92;100.00
41862;BME280;27537;57.134;-2.136;2023-03-18T04:00:08;99709.09;;;8.92;100.00
41862;BME280;27537;57.134;-2.136;2023-03-18T04:02:42;99724.31;;;9.02;100.00
41862;BME280;27537;57.134;-2.136;2023-03-18T04:05:12;99730.81;;;8.93;100.00
41862;BME280;27537;57.134;-2.136;2023-03-18T04:07:40;99659.13;;;8.62;100.00
41862;BME280;27537;57.134;-2.136;2023-03-18T04:10:08;99726.84;;;9.03;100.00
41862;BME280;27537;57.134;-2.136;2023-03-18T04:12:37;99706.53;;;8.91;100.00
41862;BME280;27537;57.134;-2.136;2023-03-18T04:15:05;99712.25;;;8.80;100.00
41862;BME280;27537;57.134;-2.136;2023-03-18T04:17:33;99704.44;;;8.80;100.00
41862;BME280;27537;57.134;-2.136;2023-03-18T04:20:00;99737.09;;;8.89;100.00
41862;BME280;27537;57.134;-2.136;2023-03-18T04:22:27;99670.31;;;8.47;100.00
41862;BME280;27537;57.134;-2.136;2023-03-18T04:24:55;99709.16;;;8.72;100.00
41862;BME280;27537;57.134;-2.136;2023-03-18T04:27:22;99698.72;;;8.53;100.00
41862;BME280;27537;57.134;-2.136;2023-03-18T04:29:48;99741.03;;;8.79;100.00
41862;BME280;27537;57.134;-2.136;2023-03-18T04:32:15;99686.88;;;8.46;100.00
41862;BME280;27537;57.134;-2.136;2023-03-18T04:34:42;99717.19;;;8.67;100.00
41862;BME280;27537;57.134;-2.136;2023-03-18T04:37:10;99719.53;;;8.73;100.00
41862;BME280;27537;57.134;-2.136;2023-03-18T04:39:40;99742.44;;;8.86;100.00
41862;BME280;27537;57.134;-2.136;2023-03-18T04:42:07;99677.13;;;8.49;100.00
41862;BME280;27537;57.134;-2.136;2023-03-18T04:44:33;99686.19;;;8.41;100.00
41862;BME280;27537;57.134;-2.136;2023-03-18T04:47:00;99688.03;;;8.39;100.00
41862;BME280;27537;57.134;-2.136;2023-03-18T04:49:27;99725.44;;;8.58;100.00
41862;BME280;27537;57.134;-2.136;2023-03-18T04:51:54;99691.25;;;8.25;100.00
41862;BME280;27537;57.134;-2.136;2023-03-18T04:54:21;99701.19;;;8.35;100.00
41862;BME280;27537;57.134;-2.136;2023-03-18T04:56:48;99683.78;;;8.17;100.00
41862;BME280;27537;57.134;-2.136;2023-03-18T04:59:15;99706.91;;;8.25;100.00
41862;BME280;27537;57.134;-2.136;2023-03-18T05:01:42;99700.91;;;8.23;100.00
41862;BME280;27537;57.134;-2.136;2023-03-18T05:04:09;99703.75;;;8.18;100.00
41862;BME280;27537;57.134;-2.136;2023-03-18T05:06:36;99689.47;;;8.06;100.00
41862;BME280;27537;57.134;-2.136;2023-03-18T05:09:03;99724.78;;;8.34;100.00
41862;BME280;27537;57.134;-2.136;2023-03-18T05:11:31;99712.06;;;8.26;100.00
41862;BME280;27537;57.134;-2.136;2023-03-18T05:13:58;99728.84;;;8.40;100.00
41862;BME280;27537;57.134;-2.136;2023-03-18T05:16:25;99669.59;;;8.04;100.00
41862;BME280;27537;57.134;-2.136;2023-03-18T05:18:52;99724.53;;;8.39;100.00
41862;BME280;27537;57.134;-2.136;2023-03-18T05:21:19;99714.72;;;8.25;100.00
41862;BME280;27537;57.134;-2.136;2023-03-18T05:23:45;99723.19;;;8.30;100.00
41862;BME280;27537;57.134;-2.136;2023-03-18T05:26:12;99667.06;;;8.02;100.00
41862;BME280;27537;57.134;-2.136;2023-03-18T05:28:39;99700.91;;;8.23;100.00
41862;BME280;27537;57.134;-2.136;2023-03-18T05:31:06;99683.06;;;8.13;100.00
41862;BME280;27537;57.134;-2.136;2023-03-18T05:33:32;99694.41;;;8.12;100.00
41862;BME280;27537;57.134;-2.136;2023-03-18T05:35:59;99733.69;;;8.28;100.00
41862;BME280;27537;57.134;-2.136;2023-03-18T05:38:26;99681.72;;;8.05;100.00
41862;BME280;27537;57.134;-2.136;2023-03-18T05:40:53;99697.59;;;8.19;100.00
41862;BME280;27537;57.134;-2.136;2023-03-18T05:43:21;99713.22;;;8.19;100.00
41862;BME280;27537;57.134;-2.136;2023-03-18T05:45:48;99706.47;;;8.15;100.00
41862;BME280;27537;57.134;-2.136;2023-03-18T05:48:15;99726.84;;;8.26;100.00
41862;BME280;27537;57.134;-2.136;2023-03-18T05:50:43;99674.44;;;7.92;100.00
41862;BME280;27537;57.134;-2.136;2023-03-18T05:53:10;99708.31;;;8.13;100.00
41862;BME280;27537;57.134;-2.136;2023-03-18T05:55:38;99707.19;;;7.98;100.00
41862;BME280;27537;57.134;-2.136;2023-03-18T05:58:06;99729.34;;;8.08;100.00
41862;BME280;27537;57.134;-2.136;2023-03-18T06:00:33;99745.00;;;8.29;100.00
41862;BME280;27537;57.134;-2.136;2023-03-18T06:03:00;99739.06;;;8.25;100.00
41862;BME280;27537;57.134;-2.136;2023-03-18T06:05:28;99736.50;;;8.24;100.00
41862;BME280;27537;57.134;-2.136;2023-03-18T06:07:57;99707.91;;;8.22;100.00
41862;BME280;27537;57.134;-2.136;2023-03-18T06:10:24;99708.59;;;8.26;100.00
41862;BME280;27537;57.134;-2.136;2023-03-18T06:12:51;99733.94;;;8.43;100.00
41862;BME280;27537;57.134;-2.136;2023-03-18T06:15:20;99730.88;;;8.33;100.00
41862;BME280;27537;57.134;-2.136;2023-03-18T06:17:48;99695.91;;;8.18;100.00
41862;BME280;27537;57.134;-2.136;2023-03-18T06:20:15;99693.31;;;8.18;100.00
41862;BME280;27537;57.134;-2.136;2023-03-18T06:22:44;99747.88;;;8.43;100.00
41862;BME280;27537;57.134;-2.136;2023-03-18T06:25:17;99707.97;;;8.21;100.00
41862;BME280;27537;57.134;-2.136;2023-03-18T06:27:44;99661.28;;;7.95;100.00
41862;BME280;27537;57.134;-2.136;2023-03-18T06:30:13;99724.53;;;8.39;100.00
41862;BME280;27537;57.134;-2.136;2023-03-18T06:32:40;99717.06;;;8.31;100.00
41862;BME280;27537;57.134;-2.136;2023-03-18T06:35:08;99745.03;;;8.48;100.00
41862;BME280;27537;57.134;-2.136;2023-03-18T06:37:36;99672.66;;;7.93;100.00
41862;BME280;27537;57.134;-2.136;2023-03-18T06:40:04;99718.97;;;8.27;100.00
41862;BME280;27537;57.134;-2.136;2023-03-18T06:42:32;99732.22;;;8.43;100.00
41862;BME280;27537;57.134;-2.136;2023-03-18T06:44:58;99674.88;;;8.02;100.00
41862;BME280;27537;57.134;-2.136;2023-03-18T06:47:26;99737.06;;;8.30;100.00
41862;BME280;27537;57.134;-2.136;2023-03-18T06:49:53;99729.72;;;8.20;100.00
41862;BME280;27537;57.134;-2.136;2023-03-18T06:52:21;99724.66;;;8.16;100.00
41862;BME280;27537;57.134;-2.136;2023-03-18T06:54:49;99723.59;;;8.21;100.00
41862;BME280;27537;57.134;-2.136;2023-03-18T06:57:16;99712.66;;;8.12;100.00
41862;BME280;27537;57.134;-2.136;2023-03-18T06:59:43;99700.16;;;8.00;100.00
41862;BME280;27537;57.134;-2.136;2023-03-18T07:02:11;99758.06;;;8.48;100.00
41862;BME280;27537;57.134;-2.136;2023-03-18T07:04:38;99755.78;;;8.40;100.00
41862;BME280;27537;57.134;-2.136;2023-03-18T07:07:05;99750.56;;;8.40;100.00
41862;BME280;27537;57.134;-2.136;2023-03-18T07:09:32;99742.28;;;8.30;100.00
41862;BME280;27537;57.134;-2.136;2023-03-18T07:11:59;99752.81;;;8.29;100.00
41862;BME280;27537;57.134;-2.136;2023-03-18T07:14:26;99756.59;;;8.42;100.00
41862;BME280;27537;57.134;-2.136;2023-03-18T07:16:56;99758.31;;;8.42;100.00
41862;BME280;27537;57.134;-2.136;2023-03-18T07:19:23;99714.41;;;8.12;100.00
41862;BME280;27537;57.134;-2.136;2023-03-18T07:21:50;99767.53;;;8.50;100.00
41862;BME280;27537;57.134;-2.136;2023-03-18T07:24:17;99703.22;;;8.10;100.00
41862;BME280;27537;57.134;-2.136;2023-03-18T07:26:46;99751.47;;;8.39;100.00
41862;BME280;27537;57.134;-2.136;2023-03-18T07:29:15;99738.59;;;8.36;100.00
41862;BME280;27537;57.134;-2.136;2023-03-18T07:31:42;99770.91;;;8.52;100.00
41862;BME280;27537;57.134;-2.136;2023-03-18T07:34:10;99722.69;;;8.22;100.00
41862;BME280;27537;57.134;-2.136;2023-03-18T07:36:37;99721.41;;;8.30;100.00
41862;BME280;27537;57.134;-2.136;2023-03-18T07:39:05;99746.94;;;8.44;100.00
41862;BME280;27537;57.134;-2.136;2023-03-18T07:41:32;99717.91;;;8.31;100.00
41862;BME280;27537;57.134;-2.136;2023-03-18T07:44:03;99745.84;;;8.50;100.00
41862;BME280;27537;57.134;-2.136;2023-03-18T07:46:30;99763.88;;;8.54;100.00
41862;BME280;27537;57.134;-2.136;2023-03-18T07:48:57;99734.81;;;8.43;100.00
41862;BME280;27537;57.134;-2.136;2023-03-18T07:51:24;99729.81;;;8.37;100.00
41862;BME280;27537;57.134;-2.136;2023-03-18T07:53:50;99770.84;;;8.54;100.00
41862;BME280;27537;57.134;-2.136;2023-03-18T07:56:17;99760.56;;;8.51;100.00
41862;BME280;27537;57.134;-2.136;2023-03-18T07:58:44;99784.91;;;8.70;100.00
41862;BME280;27537;57.134;-2.136;2023-03-18T08:01:12;99730.13;;;8.31;100.00
41862;BME280;27537;57.134;-2.136;2023-03-18T08:03:41;99756.47;;;8.45;100.00
41862;BME280;27537;57.134;-2.136;2023-03-18T08:06:09;99754.28;;;8.55;100.00
41862;BME280;27537;57.134;-2.136;2023-03-18T08:08:37;99749.16;;;8.53;100.00
41862;BME280;27537;57.134;-2.136;2023-03-18T08:11:05;99791.53;;;8.78;100.00
41862;BME280;27537;57.134;-2.136;2023-03-18T08:13:32;99771.22;;;8.65;100.00
41862;BME280;27537;57.134;-2.136;2023-03-18T08:15:59;99748.09;;;8.58;100.00
41862;BME280;27537;57.134;-2.136;2023-03-18T08:18:26;99749.22;;;8.52;100.00
41862;BME280;27537;57.134;-2.136;2023-03-18T08:20:52;99753.19;;;8.61;100.00
41862;BME280;27537;57.134;-2.136;2023-03-18T08:23:20;99759.28;;;8.60;100.00
41862;BME280;27537;57.134;-2.136;2023-03-18T08:25:48;99722.53;;;8.45;100.00
41862;BME280;27537;57.134;-2.136;2023-03-18T08:28:15;99751.81;;;8.71;100.00
41862;BME280;27537;57.134;-2.136;2023-03-18T08:30:43;99753.88;;;8.64;100.00
41862;BME280;27537;57.134;-2.136;2023-03-18T08:33:09;99742.88;;;8.58;100.00
41862;BME280;27537;57.134;-2.136;2023-03-18T08:35:38;99728.97;;;8.57;100.00
41862;BME280;27537;57.134;-2.136;2023-03-18T08:38:07;99752.19;;;8.63;100.00
41862;BME280;27537;57.134;-2.136;2023-03-18T08:40:34;99750.00;;;8.73;100.00
41862;BME280;27537;57.134;-2.136;2023-03-18T08:43:01;99777.09;;;8.89;100.00
41862;BME280;27537;57.134;-2.136;2023-03-18T08:45:28;99765.25;;;8.82;100.00
41862;BME280;27537;57.134;-2.136;2023-03-18T08:47:55;99751.97;;;8.87;100.00
41862;BME280;27537;57.134;-2.136;2023-03-18T08:50:21;99778.63;;;8.93;100.00
41862;BME280;27537;57.134;-2.136;2023-03-18T08:52:58;99751.81;;;8.90;100.00
41862;BME280;27537;57.134;-2.136;2023-03-18T08:55:33;99757.75;;;8.93;100.00
41862;BME280;27537;57.134;-2.136;2023-03-18T08:58:03;99785.75;;;9.09;100.00
41862;BME280;27537;57.134;-2.136;2023-03-18T09:00:32;99788.66;;;9.22;100.00
41862;BME280;27537;57.134;-2.136;2023-03-18T09:03:00;99714.19;;;8.77;100.00
41862;BME280;27537;57.134;-2.136;2023-03-18T09:05:27;99754.50;;;9.07;100.00
41862;BME280;27537;57.134;-2.136;2023-03-18T09:07:54;99756.91;;;9.12;100.00
41862;BME280;27537;57.134;-2.136;2023-03-18T09:10:21;99741.19;;;8.95;100.00
41862;BME280;27537;57.134;-2.136;2023-03-18T09:12:48;99725.72;;;8.71;100.00
41862;BME280;27537;57.134;-2.136;2023-03-18T09:15:16;99788.28;;;9.29;100.00
41862;BME280;27537;57.134;-2.136;2023-03-18T09:17:46;99783.56;;;9.19;100.00
41862;BME280;27537;57.134;-2.136;2023-03-18T09:20:29;99785.69;;;9.10;100.00
41862;BME280;27537;57.134;-2.136;2023-03-18T09:22:56;99727.22;;;8.77;100.00
41862;BME280;27537;57.134;-2.136;2023-03-18T09:25:23;99760.34;;;8.93;100.00
41862;BME280;27537;57.134;-2.136;2023-03-18T09:27:50;99759.66;;;9.09;100.00
41862;BME280;27537;57.134;-2.136;2023-03-18T09:30:17;99745.84;;;8.88;100.00
41862;BME280;27537;57.134;-2.136;2023-03-18T09:32:44;99746.88;;;9.03;100.00
41862;BME280;27537;57.134;-2.136;2023-03-18T09:35:11;99741.25;;;8.93;100.00
41862;BME280;27537;57.134;-2.136;2023-03-18T09:37:38;99779.28;;;9.18;100.00
41862;BME280;27537;57.134;-2.136;2023-03-18T09:40:06;99757.25;;;9.04;100.00
41862;BME280;27537;57.134;-2.136;2023-03-18T09:45:51;99794.78;;;9.57;100.00
41862;BME280;27537;57.134;-2.136;2023-03-18T09:50:40;99790.31;;;9.42;100.00
41862;BME280;27537;57.134;-2.136;2023-03-18T09:53:19;99790.94;;;9.47;100.00
41862;BME280;27537;57.134;-2.136;2023-03-18T09:55:52;99776.72;;;9.35;100.00
41862;BME280;27537;57.134;-2.136;2023-03-18T09:58:29;99809.72;;;9.55;100.00
41862;BME280;27537;57.134;-2.136;2023-03-18T10:01:02;99784.63;;;9.34;100.00
41862;BME280;27537;57.134;-2.136;2023-03-18T10:03:40;99805.56;;;9.51;100.00
41862;BME280;27537;57.134;-2.136;2023-03-18T10:06:17;99777.22;;;9.24;100.00
41862;BME280;27537;57.134;-2.136;2023-03-18T10:08:53;99806.28;;;9.36;100.00
41862;BME280;27537;57.134;-2.136;2023-03-18T10:19:45;99798.81;;;9.64;100.00
41862;BME280;27537;57.134;-2.136;2023-03-18T10:25:19;99729.78;;;9.15;100.00
41862;BME280;27537;57.134;-2.136;2023-03-18T10:30:53;99773.66;;;9.44;100.00
41862;BME280;27537;57.134;-2.136;2023-03-18T10:33:39;99804.34;;;9.58;100.00
41862;BME280;27537;57.134;-2.136;2023-03-18T10:39:02;99798.44;;;9.72;100.00
41862;BME280;27537;57.134;-2.136;2023-03-18T10:41:32;99791.66;;;9.68;100.00
41862;BME280;27537;57.134;-2.136;2023-03-18T10:44:03;99753.47;;;9.29;100.00
41862;BME280;27537;57.134;-2.136;2023-03-18T10:46:33;99760.44;;;9.47;100.00
41862;BME280;27537;57.134;-2.136;2023-03-18T10:49:10;99778.97;;;9.60;100.00
41862;BME280;27537;57.134;-2.136;2023-03-18T10:54:55;99782.91;;;9.69;100.00
41862;BME280;27537;57.134;-2.136;2023-03-18T10:57:19;99730.44;;;9.37;100.00
41862;BME280;27537;57.134;-2.136;2023-03-18T10:59:49;99776.50;;;9.57;100.00
41862;BME280;27537;57.134;-2.136;2023-03-18T11:02:30;99793.81;;;9.77;100.00
41862;BME280;27537;57.134;-2.136;2023-03-18T11:05:25;99794.69;;;9.78;100.00
41862;BME280;27537;57.134;-2.136;2023-03-18T11:08:01;99787.75;;;9.77;100.00
41862;BME280;27537;57.134;-2.136;2023-03-18T11:10:36;99790.84;;;9.85;100.00
41862;BME280;27537;57.134;-2.136;2023-03-18T11:13:05;99724.16;;;9.41;100.00
41862;BME280;27537;57.134;-2.136;2023-03-18T11:15:36;99797.66;;;9.87;100.00
41862;BME280;27537;57.134;-2.136;2023-03-18T11:18:05;99723.16;;;9.44;100.00
41862;BME280;27537;57.134;-2.136;2023-03-18T11:20:43;99792.44;;;9.87;100.00
41862;BME280;27537;57.134;-2.136;2023-03-18T11:23:31;99783.00;;;9.85;100.00
41862;BME280;27537;57.134;-2.136;2023-03-18T11:26:27;99774.13;;;9.87;100.00
41862;BME280;27537;57.134;-2.136;2023-03-18T11:28:56;99792.28;;;9.91;100.00
41862;BME280;27537;57.134;-2.136;2023-03-18T11:31:24;99791.00;;;9.99;100.00
41862;BME280;27537;57.134;-2.136;2023-03-18T11:33:56;99774.47;;;9.81;100.00
41862;BME280;27537;57.134;-2.136;2023-03-18T11:36:26;99773.84;;;9.76;100.00
41862;BME280;27537;57.134;-2.136;2023-03-18T11:38:58;99763.25;;;9.79;100.00
41862;BME280;27537;57.134;-2.136;2023-03-18T11:41:27;99794.53;;;9.98;100.00
41862;BME280;27537;57.134;-2.136;2023-03-18T11:43:59;99747.22;;;9.68;100.00
41862;BME280;27537;57.134;-2.136;2023-03-18T11:46:36;99795.94;;;9.88;100.00
41862;BME280;27537;57.134;-2.136;2023-03-18T11:49:05;99785.53;;;9.86;100.00
41862;BME280;27537;57.134;-2.136;2023-03-18T11:57:29;99719.78;;;9.77;100.00
41862;BME280;27537;57.134;-2.136;2023-03-18T12:02:55;99781.03;;;10.41;100.00
41862;BME280;27537;57.134;-2.136;2023-03-18T12:05:49;99777.91;;;10.52;100.00
41862;BME280;27537;57.134;-2.136;2023-03-18T12:13:59;99752.09;;;10.93;100.00
41862;BME280;27537;57.134;-2.136;2023-03-18T12:29:41;99771.94;;;11.13;100.00
41862;BME280;27537;57.134;-2.136;2023-03-18T12:37:44;99749.28;;;11.44;100.00
41862;BME280;27537;57.134;-2.136;2023-03-18T12:40:50;99755.31;;;11.14;100.00
41862;BME280;27537;57.134;-2.136;2023-03-18T12:43:26;99753.44;;;11.16;100.00
41862;BME280;27537;57.134;-2.136;2023-03-18T12:46:00;99759.44;;;11.02;100.00
41862;BME280;27537;57.134;-2.136;2023-03-18T12:48:34;99752.78;;;10.97;100.00
41862;BME280;27537;57.134;-2.136;2023-03-18T12:51:14;99737.97;;;10.96;100.00
41862;BME280;27537;57.134;-2.136;2023-03-18T12:53:45;99728.34;;;10.64;100.00
41862;BME280;27537;57.134;-2.136;2023-03-18T12:56:26;99720.31;;;10.83;100.00
41862;BME280;27537;57.134;-2.136;2023-03-18T12:59:04;99746.78;;;10.95;100.00
41862;BME280;27537;57.134;-2.136;2023-03-18T13:01:37;99744.84;;;11.14;100.00
41862;BME280;27537;57.134;-2.136;2023-03-18T13:04:11;99706.63;;;11.26;100.00
41862;BME280;27537;57.134;-2.136;2023-03-18T13:07:04;99745.41;;;11.66;100.00
41862;BME280;27537;57.134;-2.136;2023-03-18T13:09:48;99737.53;;;11.35;100.00
41862;BME280;27537;57.134;-2.136;2023-03-18T13:12:31;99736.63;;;11.51;100.00
41862;BME280;27537;57.134;-2.136;2023-03-18T13:17:52;99733.63;;;11.43;100.00
41862;BME280;27537;57.134;-2.136;2023-03-18T13:20:29;99729.47;;;11.54;100.00
41862;BME280;27537;57.134;-2.136;2023-03-18T13:25:48;99736.50;;;11.68;100.00
41862;BME280;27537;57.134;-2.136;2023-03-18T13:41:43;99728.97;;;11.48;100.00
41862;BME280;27537;57.134;-2.136;2023-03-18T13:44:20;99667.56;;;11.21;100.00
41862;BME280;27537;57.134;-2.136;2023-03-18T13:46:57;99693.94;;;11.49;100.00
41862;BME280;27537;57.134;-2.136;2023-03-18T13:49:28;99697.28;;;11.36;100.00
41862;BME280;27537;57.134;-2.136;2023-03-18T13:51:58;99688.72;;;11.49;100.00
41862;BME280;27537;57.134;-2.136;2023-03-18T13:54:37;99675.69;;;11.47;100.00
41862;BME280;27537;57.134;-2.136;2023-03-18T13:59:48;99650.31;;;11.33;100.00
41862;BME280;27537;57.134;-2.136;2023-03-18T14:02:40;99712.19;;;12.11;100.00
41862;BME280;27537;57.134;-2.136;2023-03-18T14:05:36;99695.81;;;11.77;100.00
41862;BME280;27537;57.134;-2.136;2023-03-18T14:08:34;99708.47;;;11.85;100.00
41862;BME280;27537;57.134;-2.136;2023-03-18T14:14:00;99703.94;;;12.03;100.00
41862;BME280;27537;57.134;-2.136;2023-03-18T14:16:50;99672.91;;;11.95;100.00
41862;BME280;27537;57.134;-2.136;2023-03-18T14:19:22;99701.19;;;11.90;100.00
41862;BME280;27537;57.134;-2.136;2023-03-18T14:22:06;99644.53;;;11.12;100.00
41862;BME280;27537;57.134;-2.136;2023-03-18T14:24:33;99624.63;;;11.24;100.00
41862;BME280;27537;57.134;-2.136;2023-03-18T14:34:57;99647.78;;;11.32;100.00
41862;BME280;27537;57.134;-2.136;2023-03-18T14:40:00;99638.91;;;11.49;100.00
41862;BME280;27537;57.134;-2.136;2023-03-18T14:42:50;99684.63;;;11.59;100.00